Terminal Aerodrome Forecast
Issued by NWS

Home | Current Version | Previous Version | Text Only | Print | Product List | Glossary On
Versions: 1 2 3 4 5 6 7 8 9 10 11 12 13 14 15 16
000
FTUS43 KFGF 310200 AAA
TAFBJI
TAF AMD
KBJI 310224Z 3102/3124 VRB03KT 1SM BR BKN002
      TEMPO 3103/3107 1/4SM FG VV001
     FM311300 16005KT P6SM SCT090=

USA.gov is the U.S. government's official web portal to all federal, state and local government web resources and services.